Langdon, Kansas
Current Conditions -  °F | °C
As of 8:55 AM on Tuesday 21 Oct 2014 (Local Time) from KPTT Reporting Station
Clear Clear  
Wind Chill: 13°   Ceiling: Unl
Heat Index: 13°   Visibility: 7mi
Dew Point: 11°   Wind: 7mph
Humidity: 88%   Direction: 120°ESE
Pressure: 30.09"   Gusts: NA
Location:  37.8171°N, 98.3602°W
Report Text: KPTT 211355Z AUTO 12006KT 7SM CLR 13/11 A3009 RMK AO2
Loading
Personal Weather Stations






























Interactive Weather Map
Tropical Storm Tracking
New forecast layout! Learn more

10-Day Weather Forecast

Advertisements
Track Severe Weather on mobile